createdAt,value
2022-10-17T00:01:59.710Z,16.92
2022-10-17T00:04:45.712Z,12.18
2022-10-17T00:07:31.581Z,15.48
2022-10-17T00:10:17.601Z,10.35
2022-10-17T00:13:04.245Z,12.48
2022-10-17T00:15:50.557Z,15.23
2022-10-17T00:18:36.589Z,12.00
2022-10-17T00:21:23.428Z,16.60
2022-10-17T00:24:09.574Z,10.30
2022-10-17T00:26:55.549Z,18.65
2022-10-17T00:29:41.589Z,11.23
2022-10-17T00:32:47.163Z,12.90
2022-10-17T00:35:34.141Z,13.13
2022-10-17T00:38:21.034Z,12.95
2022-10-17T00:41:08.073Z,13.75
2022-10-17T00:44:04.393Z,15.98
2022-10-17T00:46:52.884Z,14.13
2022-10-17T00:49:39.367Z,15.73
2022-10-17T00:52:28.999Z,12.15
2022-10-17T00:55:29.302Z,9.70
2022-10-17T00:58:15.658Z,15.32
2022-10-17T01:01:02.854Z,11.15
2022-10-17T01:03:49.007Z,10.73
2022-10-17T01:06:35.449Z,10.30
2022-10-17T01:09:22.505Z,9.00
2022-10-17T01:12:36.724Z,8.35
2022-10-17T01:15:45.855Z,9.00
2022-10-17T01:18:34.658Z,12.90
2022-10-17T01:21:23.935Z,11.38
2022-10-17T01:24:49.238Z,11.52
2022-10-17T01:28:13.206Z,9.48
2022-10-17T01:31:04.360Z,8.05
2022-10-17T01:33:54.016Z,11.63
2022-10-17T01:37:00.587Z,10.10
2022-10-17T01:40:06.990Z,13.45
2022-10-17T01:43:25.972Z,8.23
2022-10-17T01:46:36.045Z,9.07
2022-10-17T01:49:26.220Z,16.52
2022-10-17T01:52:23.330Z,9.68
2022-10-17T01:55:14.436Z,13.95
2022-10-17T01:58:13.665Z,10.38
2022-10-17T02:01:05.063Z,11.32
2022-10-17T02:03:52.306Z,8.82
2022-10-17T02:06:39.391Z,11.10
2022-10-17T02:09:30.202Z,12.88
2022-10-17T02:12:41.272Z,15.10
2022-10-17T02:15:43.949Z,10.35
2022-10-17T02:18:44.886Z,10.60
2022-10-17T02:21:41.750Z,12.90
2022-10-17T02:24:53.748Z,13.18
2022-10-17T02:27:53.072Z,11.60
2022-10-17T02:31:08.433Z,11.65
2022-10-17T02:34:09.185Z,11.05
2022-10-17T02:36:59.803Z,9.65
2022-10-17T02:39:48.663Z,13.55
2022-10-17T02:42:35.607Z,11.98
2022-10-17T02:45:26.523Z,10.98
2022-10-17T02:48:45.981Z,11.25
2022-10-17T02:52:07.272Z,11.15
2022-10-17T02:55:05.899Z,5.32
2022-10-17T02:57:56.060Z,8.32
2022-10-17T03:00:43.607Z,13.93
2022-10-17T03:03:32.443Z,12.20
2022-10-17T03:06:21.472Z,9.88
2022-10-17T03:09:10.765Z,9.05
2022-10-17T03:11:56.627Z,10.55
2022-10-17T03:14:43.559Z,9.65
2022-10-17T03:17:29.510Z,13.07
2022-10-17T03:20:18.573Z,5.70
2022-10-17T03:23:05.012Z,10.60
2022-10-17T03:25:51.360Z,10.70
2022-10-17T03:28:37.459Z,12.07
2022-10-17T03:31:24.340Z,12.95
2022-10-17T03:34:12.186Z,10.77
2022-10-17T03:36:58.106Z,15.13
2022-10-17T03:39:46.434Z,10.25
2022-10-17T03:42:32.402Z,12.82
2022-10-17T03:45:18.407Z,8.68
2022-10-17T03:48:06.121Z,14.13
2022-10-17T03:50:52.877Z,8.23
2022-10-17T03:53:38.837Z,10.43
2022-10-17T03:56:25.660Z,9.77
2022-10-17T03:59:18.116Z,8.85
2022-10-17T04:02:12.640Z,11.88
2022-10-17T04:04:58.492Z,13.68
2022-10-17T04:07:44.403Z,7.57
2022-10-17T04:10:31.799Z,9.93
2022-10-17T04:13:18.139Z,10.18
2022-10-17T04:16:08.123Z,8.25
2022-10-17T04:19:00.240Z,8.82
2022-10-17T04:21:50.404Z,7.82
2022-10-17T04:24:36.940Z,10.48
2022-10-17T04:27:31.945Z,8.65
2022-10-17T04:30:17.934Z,9.95
2022-10-17T04:33:05.941Z,12.75
2022-10-17T04:35:57.181Z,11.18
2022-10-17T04:38:44.133Z,10.73
2022-10-17T04:41:30.051Z,14.48
2022-10-17T04:44:19.824Z,9.77
2022-10-17T04:47:10.375Z,10.20
2022-10-17T04:49:59.775Z,11.45
2022-10-17T04:52:46.385Z,8.18
2022-10-17T04:55:36.677Z,13.00
2022-10-17T04:58:23.176Z,10.57
2022-10-17T05:01:20.357Z,9.68
2022-10-17T05:04:10.766Z,10.30
2022-10-17T05:06:57.713Z,10.40
2022-10-17T05:10:00.878Z,16.92
2022-10-17T05:12:49.419Z,11.32
2022-10-17T05:15:40.728Z,11.40
2022-10-17T05:18:27.868Z,13.30
2022-10-17T05:21:16.780Z,9.98
2022-10-17T05:24:07.395Z,10.68
2022-10-17T05:26:53.955Z,6.50
2022-10-17T05:29:40.102Z,11.57
2022-10-17T05:32:39.961Z,10.60
2022-10-17T05:35:31.819Z,10.50
2022-10-17T05:38:18.768Z,10.88
2022-10-17T05:41:06.729Z,10.35
2022-10-17T05:43:53.711Z,12.25
2022-10-17T05:46:52.504Z,11.85
2022-10-17T05:49:47.380Z,8.93
2022-10-17T05:52:40.036Z,13.20
2022-10-17T05:55:32.511Z,12.45
2022-10-17T05:58:22.040Z,11.20
2022-10-17T06:01:13.129Z,13.40
2022-10-17T06:03:58.924Z,10.85
2022-10-17T06:06:45.759Z,13.95
2022-10-17T06:09:32.685Z,12.20
2022-10-17T06:12:19.753Z,11.70
2022-10-17T06:15:07.683Z,12.93
2022-10-17T06:17:54.183Z,8.07
2022-10-17T06:20:45.195Z,8.73
2022-10-17T06:23:34.575Z,8.10
2022-10-17T06:26:35.419Z,6.97
2022-10-17T06:29:21.970Z,12.40
2022-10-17T06:32:12.751Z,9.77
2022-10-17T06:35:01.970Z,5.82
2022-10-17T06:37:48.925Z,4.35
2022-10-17T06:40:34.808Z,7.25
2022-10-17T06:43:26.994Z,7.78
2022-10-17T06:46:19.842Z,8.57
2022-10-17T06:49:15.619Z,6.50
2022-10-17T06:52:17.702Z,5.57
2022-10-17T06:55:23.573Z,7.03
2022-10-17T06:58:22.254Z,6.10
2022-10-17T07:01:19.443Z,8.77
2022-10-17T07:04:07.560Z,6.50
2022-10-17T07:06:54.643Z,4.40
2022-10-17T07:09:43.483Z,7.15
2022-10-17T07:12:30.388Z,7.55
2022-10-17T07:15:16.643Z,4.70
2022-10-17T07:18:03.107Z,4.93
2022-10-17T07:20:55.533Z,8.23
2022-10-17T07:23:41.756Z,7.47
2022-10-17T07:26:28.577Z,9.18
2022-10-17T07:29:16.009Z,7.35
2022-10-17T07:32:08.660Z,7.43
2022-10-17T07:34:54.932Z,6.90
2022-10-17T07:37:41.684Z,6.00
2022-10-17T07:40:27.910Z,6.18
2022-10-17T07:43:13.749Z,4.60
2022-10-17T07:46:01.666Z,10.13
2022-10-17T07:48:49.849Z,6.40
2022-10-17T07:51:38.551Z,6.28
2022-10-17T07:54:24.560Z,5.38
2022-10-17T07:57:11.689Z,8.70
2022-10-17T07:59:57.876Z,6.65
2022-10-17T08:02:43.800Z,6.72
2022-10-17T08:05:30.704Z,7.97
2022-10-17T08:08:16.956Z,9.23
2022-10-17T08:11:07.716Z,5.80
2022-10-17T08:13:54.382Z,7.32
2022-10-17T08:16:41.203Z,4.93
2022-10-17T08:19:27.182Z,5.32
2022-10-17T08:22:13.142Z,7.13
2022-10-17T08:24:59.401Z,7.25
2022-10-17T08:27:45.738Z,9.70
2022-10-17T08:30:32.006Z,7.35
2022-10-17T08:33:17.994Z,4.65
2022-10-17T08:36:05.258Z,7.32
2022-10-17T08:38:52.930Z,8.88
2022-10-17T08:41:48.130Z,10.63
2022-10-17T08:44:43.848Z,10.00
2022-10-17T08:47:37.505Z,6.53
2022-10-17T08:50:38.556Z,11.02
2022-10-17T08:54:05.589Z,9.27
2022-10-17T08:56:56.285Z,8.57
2022-10-17T08:59:50.492Z,13.55
2022-10-17T09:02:48.750Z,12.25
2022-10-17T09:05:39.963Z,7.88
2022-10-17T09:08:41.991Z,10.80
2022-10-17T09:11:52.212Z,7.82
2022-10-17T09:14:43.038Z,13.23
2022-10-17T09:17:32.191Z,8.77
2022-10-17T09:20:25.788Z,8.93
2022-10-17T09:23:22.738Z,15.60
2022-10-17T09:26:11.208Z,12.13
2022-10-17T09:28:59.858Z,11.48
2022-10-17T09:31:59.272Z,11.25
2022-10-17T09:34:45.491Z,10.07
2022-10-17T09:37:33.797Z,10.88
2022-10-17T09:40:27.815Z,11.15
2022-10-17T09:43:15.343Z,12.80
2022-10-17T09:46:04.212Z,14.27
2022-10-17T09:49:07.055Z,15.43
2022-10-17T09:51:53.793Z,13.68
2022-10-17T09:54:45.798Z,19.42
2022-10-17T09:57:51.534Z,12.85
2022-10-17T10:00:39.427Z,10.48
2022-10-17T10:03:26.929Z,9.27
2022-10-17T10:06:19.007Z,12.32
2022-10-17T10:09:07.005Z,10.63
2022-10-17T10:11:56.442Z,15.20
2022-10-17T10:14:45.161Z,14.73
2022-10-17T10:17:39.495Z,11.95
2022-10-17T10:20:46.702Z,8.52
2022-10-17T10:23:33.568Z,10.05
2022-10-17T10:26:40.873Z,15.27
2022-10-17T10:29:34.252Z,14.73
2022-10-17T10:32:33.417Z,10.93
2022-10-17T10:35:22.046Z,16.20
2022-10-17T10:38:14.704Z,9.82
2022-10-17T10:41:09.963Z,9.00
2022-10-17T10:43:56.553Z,15.75
2022-10-17T10:46:42.690Z,13.93
2022-10-17T10:49:30.989Z,13.55
2022-10-17T10:53:03.285Z,14.07
2022-10-17T10:55:54.914Z,11.90
2022-10-17T10:58:42.091Z,8.15
2022-10-17T11:01:38.061Z,15.50
2022-10-17T11:04:33.769Z,17.77
2022-10-17T11:07:34.962Z,12.73
2022-10-17T11:10:25.613Z,9.65
2022-10-17T11:13:23.452Z,11.50
2022-10-17T11:16:37.395Z,11.20
2022-10-17T11:19:40.926Z,12.13
2022-10-17T11:22:32.507Z,9.93
2022-10-17T11:25:30.577Z,12.80
2022-10-17T11:28:22.733Z,9.75
2022-10-17T11:31:13.605Z,15.15
2022-10-17T11:34:23.359Z,13.60
2022-10-17T11:37:25.341Z,10.90
2022-10-17T11:40:31.409Z,22.40
2022-10-17T11:43:27.817Z,8.68
2022-10-17T11:46:24.126Z,9.30
2022-10-17T11:49:20.213Z,14.10
2022-10-17T11:52:55.824Z,8.10
2022-10-17T11:55:43.467Z,11.02
2022-10-17T11:58:46.333Z,10.50
2022-10-17T12:01:39.126Z,8.32
2022-10-17T12:04:52.231Z,11.43
2022-10-17T12:08:09.622Z,9.45
2022-10-17T12:11:14.476Z,12.52
2022-10-17T12:14:04.950Z,14.43
2022-10-17T12:16:52.838Z,16.05
2022-10-17T12:19:38.962Z,10.65
2022-10-17T12:22:26.262Z,10.23
2022-10-17T12:25:21.649Z,14.00
2022-10-17T12:28:13.217Z,11.25
2022-10-17T12:31:08.696Z,12.10
2022-10-17T12:33:58.226Z,12.15
2022-10-17T12:36:44.105Z,16.27
2022-10-17T12:39:30.156Z,16.33
2022-10-17T12:42:31.296Z,11.32
2022-10-17T12:45:55.293Z,8.95
2022-10-17T12:48:41.285Z,8.10
2022-10-17T12:51:37.872Z,14.07
2022-10-17T12:54:25.868Z,14.80
2022-10-17T12:57:20.556Z,14.15
2022-10-17T13:00:25.377Z,11.18
2022-10-17T13:03:17.013Z,10.57
2022-10-17T13:06:07.387Z,8.35
2022-10-17T13:09:08.728Z,11.20
2022-10-17T13:11:57.556Z,16.63
2022-10-17T13:14:45.926Z,12.35
2022-10-17T13:17:32.121Z,10.63
2022-10-17T13:20:28.903Z,11.68
2022-10-17T13:23:25.904Z,12.73
2022-10-17T13:26:20.759Z,8.15
2022-10-17T13:29:11.857Z,13.20
2022-10-17T13:32:04.105Z,14.65
2022-10-17T13:35:07.255Z,10.00
2022-10-17T13:37:54.223Z,12.45
2022-10-17T13:40:50.801Z,16.25
2022-10-17T13:43:39.003Z,12.05
2022-10-17T13:46:38.431Z,12.93
2022-10-17T13:49:31.503Z,10.82
2022-10-17T13:52:23.438Z,10.40
2022-10-17T13:55:17.830Z,8.85
2022-10-17T13:58:17.907Z,6.35
2022-10-17T14:01:04.162Z,12.52
2022-10-17T14:04:02.033Z,14.93
2022-10-17T14:09:40.216Z,7.45
2022-10-17T14:12:26.459Z,16.30
2022-10-17T14:15:15.778Z,8.23
2022-10-17T14:18:08.318Z,9.63
2022-10-17T14:21:32.066Z,9.60
2022-10-17T14:24:30.096Z,10.35
2022-10-17T14:27:35.386Z,5.95
2022-10-17T14:30:51.733Z,9.52
2022-10-17T14:33:36.345Z,11.55
2022-10-17T14:36:37.294Z,11.02
2022-10-17T14:39:26.059Z,13.90
2022-10-17T14:42:22.953Z,8.02
2022-10-17T14:45:14.581Z,7.97
2022-10-17T14:48:04.931Z,13.05
2022-10-17T14:51:15.400Z,13.57
2022-10-17T14:54:05.077Z,12.75
2022-10-17T14:56:54.340Z,9.70
2022-10-17T14:59:53.698Z,12.68
2022-10-17T15:02:40.547Z,8.57
2022-10-17T15:05:26.531Z,11.07
2022-10-17T15:08:17.463Z,13.10
2022-10-17T15:11:06.182Z,10.25
2022-10-17T15:13:52.812Z,15.25
2022-10-17T15:16:39.447Z,11.20
2022-10-17T15:19:25.509Z,8.98
2022-10-17T15:22:12.000Z,15.82
2022-10-17T15:24:57.792Z,8.18
2022-10-17T15:27:43.788Z,6.85
2022-10-17T15:30:32.557Z,9.65
2022-10-17T15:33:18.689Z,8.63
2022-10-17T15:36:04.990Z,6.30
2022-10-17T15:38:53.460Z,7.13
2022-10-17T15:41:39.642Z,5.85
2022-10-17T15:44:25.600Z,7.18
2022-10-17T15:47:30.823Z,9.68
2022-10-17T15:50:18.025Z,8.93
2022-10-17T15:53:05.785Z,11.57
2022-10-17T15:55:52.086Z,11.50
2022-10-17T15:58:42.839Z,10.02
2022-10-17T16:01:31.636Z,14.07
2022-10-17T16:04:18.647Z,11.77
2022-10-17T16:07:04.793Z,8.25
2022-10-17T16:09:50.873Z,10.45
2022-10-17T16:12:41.153Z,13.50
2022-10-17T16:15:28.344Z,13.05
2022-10-17T16:18:14.440Z,13.73
2022-10-17T16:21:00.711Z,9.23
2022-10-17T16:23:46.916Z,11.57
2022-10-17T16:26:33.276Z,10.43
2022-10-17T16:29:19.166Z,9.15
2022-10-17T16:32:05.025Z,12.30
2022-10-17T16:34:50.978Z,19.48
2022-10-17T16:37:37.307Z,10.48
2022-10-17T16:40:23.247Z,11.98
2022-10-17T16:43:18.279Z,11.48
2022-10-17T16:46:04.731Z,10.57
2022-10-17T16:48:51.228Z,12.00
2022-10-17T16:51:37.088Z,8.32
2022-10-17T16:54:23.028Z,11.70
2022-10-17T16:57:09.228Z,15.13
2022-10-17T16:59:56.081Z,8.00
2022-10-17T17:02:42.681Z,13.13
2022-10-17T17:05:28.885Z,8.13
2022-10-17T17:08:14.799Z,12.35
2022-10-17T17:11:00.883Z,14.48
2022-10-17T17:13:47.599Z,14.05
2022-10-17T17:16:34.805Z,9.02
2022-10-17T17:19:21.228Z,12.10
2022-10-17T17:22:07.301Z,14.98
2022-10-17T17:24:53.496Z,14.23
2022-10-17T17:27:39.529Z,10.73
2022-10-17T17:30:25.366Z,13.77
2022-10-17T17:33:11.622Z,12.27
2022-10-17T17:36:00.148Z,12.48
2022-10-17T17:38:47.099Z,14.05
2022-10-17T17:41:33.540Z,13.73
2022-10-17T17:44:20.446Z,14.57
2022-10-17T17:47:06.843Z,14.43
2022-10-17T17:49:52.853Z,17.70
2022-10-17T17:52:41.840Z,16.30
2022-10-17T17:55:28.004Z,17.85
2022-10-17T17:58:14.343Z,16.83
2022-10-17T18:01:01.335Z,19.13
2022-10-17T18:03:49.533Z,22.20
2022-10-17T18:06:37.606Z,18.83
2022-10-17T18:09:23.969Z,18.67
2022-10-17T18:12:13.769Z,20.15
2022-10-17T18:14:59.752Z,12.40
2022-10-17T18:17:46.053Z,14.18
2022-10-17T18:20:32.611Z,12.68
2022-10-17T18:23:18.741Z,15.90
2022-10-17T18:26:05.369Z,21.27
2022-10-17T18:28:51.736Z,16.25
2022-10-17T18:31:37.480Z,17.58
2022-10-17T18:34:23.496Z,15.23
2022-10-17T18:37:09.519Z,21.52
2022-10-17T18:39:57.352Z,17.08
2022-10-17T18:42:43.552Z,13.73
2022-10-17T18:45:29.889Z,14.40
2022-10-17T18:48:17.756Z,21.23
2022-10-17T18:51:05.152Z,20.33
2022-10-17T18:54:00.208Z,17.23
2022-10-17T18:56:49.323Z,17.73
2022-10-17T18:59:35.302Z,16.63
2022-10-17T19:02:21.365Z,18.65
2022-10-17T19:05:07.573Z,17.90
2022-10-17T19:07:54.831Z,16.30
2022-10-17T19:10:42.210Z,15.60
2022-10-17T19:13:28.188Z,9.57
2022-10-17T19:16:17.671Z,16.88
2022-10-17T19:19:11.514Z,18.35
2022-10-17T19:21:57.727Z,23.13
2022-10-17T19:24:43.498Z,13.50
2022-10-17T19:27:29.772Z,16.20
2022-10-17T19:30:16.768Z,19.00
2022-10-17T19:33:02.631Z,17.20
2022-10-17T19:35:59.299Z,21.60
2022-10-17T19:38:45.412Z,19.38
2022-10-17T19:41:32.179Z,15.27
2022-10-17T19:44:18.386Z,21.83
2022-10-17T19:47:04.252Z,18.83
2022-10-17T19:49:50.300Z,15.30
2022-10-17T19:52:36.067Z,16.52
2022-10-17T19:55:22.127Z,17.60
2022-10-17T19:58:08.551Z,18.02
2022-10-17T20:00:57.346Z,23.08
2022-10-17T20:03:43.344Z,22.60
2022-10-17T20:06:29.477Z,20.50
2022-10-17T20:09:17.252Z,16.80
2022-10-17T20:12:03.818Z,19.17
2022-10-17T20:14:50.021Z,20.15
2022-10-17T20:17:36.097Z,18.48
2022-10-17T20:20:22.425Z,13.40
2022-10-17T20:23:08.862Z,16.92
2022-10-17T20:26:08.678Z,29.75
2022-10-17T20:29:05.117Z,20.88
2022-10-17T20:31:51.671Z,24.73
2022-10-17T20:34:37.854Z,15.90
2022-10-17T20:37:25.278Z,20.48
2022-10-17T20:40:33.501Z,18.77
2022-10-17T20:43:17.864Z,21.33
2022-10-17T20:46:15.779Z,14.88
2022-10-17T20:49:12.944Z,18.90
2022-10-17T20:52:00.573Z,16.50
2022-10-17T20:54:46.722Z,12.93
2022-10-17T20:57:32.976Z,14.25
2022-10-17T21:00:19.087Z,14.43
2022-10-17T21:03:05.502Z,15.63
2022-10-17T21:05:51.709Z,20.25
2022-10-17T21:08:38.422Z,21.20
2022-10-17T21:11:27.303Z,20.02
2022-10-17T21:14:13.273Z,17.92
2022-10-17T21:17:04.478Z,14.00
2022-10-17T21:19:51.014Z,16.90
2022-10-17T21:22:37.024Z,20.05
2022-10-17T21:25:25.515Z,15.68
2022-10-17T21:28:11.306Z,12.38
2022-10-17T21:31:07.566Z,18.50
2022-10-17T21:33:55.917Z,17.80
2022-10-17T21:36:42.528Z,17.63
2022-10-17T21:39:28.597Z,13.52
2022-10-17T21:42:14.504Z,13.18
2022-10-17T21:45:00.348Z,14.98
2022-10-17T21:48:11.245Z,13.63
2022-10-17T21:51:02.890Z,13.55
2022-10-17T21:53:49.771Z,20.35
2022-10-17T21:56:36.405Z,13.75
2022-10-17T21:59:22.584Z,16.33
2022-10-17T22:02:08.885Z,15.00
2022-10-17T22:04:54.795Z,13.73
2022-10-17T22:07:43.390Z,10.85
2022-10-17T22:10:29.676Z,8.05
2022-10-17T22:13:15.845Z,18.27
2022-10-17T22:16:10.075Z,14.80
2022-10-17T22:19:01.788Z,19.27
2022-10-17T22:21:52.902Z,12.43
2022-10-17T22:24:38.936Z,12.98
2022-10-17T22:27:24.995Z,18.95
2022-10-17T22:30:11.355Z,16.63
2022-10-17T22:32:57.307Z,12.02
2022-10-17T22:35:44.736Z,12.05
2022-10-17T22:38:31.234Z,11.98
2022-10-17T22:41:17.633Z,10.20
2022-10-17T22:44:04.217Z,10.57
2022-10-17T22:46:50.062Z,9.85
2022-10-17T22:49:36.076Z,14.40
2022-10-17T22:52:22.827Z,12.23
2022-10-17T22:55:09.848Z,17.88
2022-10-17T22:57:55.968Z,16.08
2022-10-17T23:00:42.510Z,14.10
2022-10-17T23:03:29.752Z,12.00
2022-10-17T23:06:18.280Z,10.20
2022-10-17T23:09:04.493Z,13.10
2022-10-17T23:11:50.391Z,13.05
2022-10-17T23:14:40.555Z,14.50
2022-10-17T23:17:26.628Z,15.57
2022-10-17T23:20:12.551Z,11.45
2022-10-17T23:22:59.022Z,8.45
2022-10-17T23:25:45.031Z,10.43
2022-10-17T23:28:32.084Z,8.70
2022-10-17T23:31:20.584Z,9.13
2022-10-17T23:34:06.616Z,12.27
2022-10-17T23:36:53.663Z,12.45
2022-10-17T23:39:39.719Z,9.52
2022-10-17T23:42:25.973Z,6.65
2022-10-17T23:45:12.141Z,10.00
2022-10-17T23:48:02.177Z,10.73
2022-10-17T23:50:48.207Z,15.02
2022-10-17T23:53:37.162Z,10.25
2022-10-17T23:56:32.275Z,10.13
2022-10-17T23:59:32.544Z,10.15
